Terminal Aerodrome Forecast
Issued by NWS

Home | Current Version | Previous Version | Text Only | Print | Product List | Glossary On
Versions: 1 2 3 4 5 6 7 8 9 10 11 12 13 14 15 16
000
FTAK31 PAJN 191100
TAFAJN
TAF
PAJN 191122Z 1912/2012 10013KT 6SM -RA BR FEW015 BKN030 OVC040
      WS020/11025KT
     FM191800 11013G23KT 4SM RA BR BKN020 OVC035
     FM200000 11010G18KT 6SM -RA BR SCT015 OVC025
     FM200800 11013G23KT 4SM RA BR OVC025=

USA.gov is the U.S. government's official web portal to all federal, state and local government web resources and services.